createdAt,value
2018-01-14T00:01:26.307Z,14.87
2018-01-14T00:03:54.687Z,15.00
2018-01-14T00:06:23.059Z,15.17
2018-01-14T00:08:51.516Z,15.40
2018-01-14T00:11:19.943Z,14.70
2018-01-14T00:13:48.329Z,15.00
2018-01-14T00:16:16.714Z,15.07
2018-01-14T00:18:45.101Z,14.97
2018-01-14T00:21:13.463Z,15.27
2018-01-14T00:23:41.829Z,15.43
2018-01-14T00:26:10.247Z,14.47
2018-01-14T00:28:38.620Z,14.43
2018-01-14T00:31:07.024Z,15.03
2018-01-14T00:33:35.476Z,14.30
2018-01-14T00:36:03.862Z,14.30
2018-01-14T00:38:32.338Z,13.47
2018-01-14T00:41:00.724Z,13.97
2018-01-14T00:43:29.200Z,14.07
2018-01-14T00:45:57.588Z,13.63
2018-01-14T00:48:25.999Z,14.70
2018-01-14T00:50:55.148Z,14.43
2018-01-14T00:53:23.531Z,13.40
2018-01-14T00:55:51.923Z,13.10
2018-01-14T00:58:20.380Z,13.20
2018-01-14T01:00:49.697Z,13.63
2018-01-14T01:03:18.076Z,13.80
2018-01-14T01:05:46.457Z,14.03
2018-01-14T01:08:14.892Z,13.13
2018-01-14T01:10:44.037Z,14.20
2018-01-14T01:13:12.432Z,13.63
2018-01-14T01:15:40.809Z,14.17
2018-01-14T01:18:09.192Z,14.23
2018-01-14T01:20:37.566Z,14.10
2018-01-14T01:23:05.964Z,14.07
2018-01-14T01:25:35.107Z,13.70
2018-01-14T01:28:03.549Z,12.50
2018-01-14T01:30:32.697Z,13.27
2018-01-14T01:33:01.071Z,14.10
2018-01-14T01:35:29.488Z,13.63
2018-01-14T01:37:57.993Z,13.73
2018-01-14T01:40:27.129Z,14.80
2018-01-14T01:42:55.519Z,15.57
2018-01-14T01:45:23.900Z,14.23
2018-01-14T01:47:52.279Z,14.90
2018-01-14T01:50:20.659Z,14.13
2018-01-14T01:52:49.049Z,14.80
2018-01-14T01:55:17.472Z,14.93
2018-01-14T01:57:45.899Z,13.50
2018-01-14T02:00:14.273Z,15.47
2018-01-14T02:02:42.752Z,13.77
2018-01-14T02:05:11.152Z,13.97
2018-01-14T02:07:39.638Z,14.33
2018-01-14T02:10:08.029Z,14.83
2018-01-14T02:12:36.392Z,14.50
2018-01-14T02:15:04.877Z,14.37
2018-01-14T02:17:33.500Z,14.10
2018-01-14T02:20:01.984Z,14.07
2018-01-14T02:22:30.351Z,14.10
2018-01-14T02:24:59.484Z,13.77
2018-01-14T02:27:28.046Z,12.63
2018-01-14T02:29:57.161Z,12.37
2018-01-14T02:32:25.555Z,12.60
2018-01-14T02:34:53.936Z,11.57
2018-01-14T02:37:22.318Z,11.70
2018-01-14T02:39:50.723Z,12.93
2018-01-14T02:42:19.110Z,11.93
2018-01-14T02:44:47.576Z,12.43
2018-01-14T02:47:15.946Z,12.37
2018-01-14T02:49:44.311Z,13.03
2018-01-14T02:52:12.688Z,12.90
2018-01-14T02:54:41.050Z,12.67
2018-01-14T02:57:09.428Z,12.27
2018-01-14T02:59:37.988Z,13.77
2018-01-14T03:02:06.385Z,13.10
2018-01-14T03:04:34.749Z,12.90
2018-01-14T03:07:03.118Z,12.93
2018-01-14T03:09:32.267Z,13.47
2018-01-14T03:12:00.648Z,12.83
2018-01-14T03:14:29.027Z,11.83
2018-01-14T03:16:57.996Z,13.67
2018-01-14T03:19:26.380Z,12.13
2018-01-14T03:21:54.752Z,12.40
2018-01-14T03:24:23.121Z,13.10
2018-01-14T03:26:51.512Z,12.87
2018-01-14T03:29:19.896Z,13.00
2018-01-14T03:31:48.328Z,13.00
2018-01-14T03:34:16.684Z,13.53
2018-01-14T03:36:45.377Z,13.77
2018-01-14T03:39:13.738Z,15.00
2018-01-14T03:41:42.316Z,13.23
2018-01-14T03:44:10.699Z,13.73
2018-01-14T03:46:39.076Z,14.33
2018-01-14T03:49:07.459Z,12.77
2018-01-14T03:51:35.838Z,13.13
2018-01-14T03:54:04.245Z,12.50
2018-01-14T03:56:32.626Z,14.37
2018-01-14T03:59:01.002Z,14.00
2018-01-14T04:01:29.385Z,12.93
2018-01-14T04:03:57.738Z,12.63
2018-01-14T04:06:26.125Z,12.90
2018-01-14T04:08:54.493Z,13.60
2018-01-14T04:11:22.897Z,12.57
2018-01-14T04:13:51.305Z,16.63
2018-01-14T04:16:19.717Z,12.77
2018-01-14T04:18:48.080Z,11.00
2018-01-14T04:21:16.446Z,11.20
2018-01-14T04:23:45.602Z,11.80
2018-01-14T04:26:13.968Z,11.77
2018-01-14T04:28:42.464Z,11.23
2018-01-14T04:31:10.836Z,11.50
2018-01-14T04:33:39.221Z,12.37
2018-01-14T04:36:07.613Z,11.30
2018-01-14T04:38:36.049Z,13.70
2018-01-14T04:41:04.428Z,13.63
2018-01-14T04:43:32.792Z,17.90
2018-01-14T04:46:01.202Z,16.77
2018-01-14T04:48:29.563Z,14.90
2018-01-14T04:50:57.981Z,14.60
2018-01-14T04:53:26.469Z,14.57
2018-01-14T04:55:54.825Z,14.77
2018-01-14T04:58:23.216Z,15.00
2018-01-14T05:00:51.600Z,15.00
2018-01-14T05:03:19.972Z,16.57
2018-01-14T05:05:48.443Z,16.27
2018-01-14T05:08:16.830Z,17.30
2018-01-14T05:10:45.201Z,15.40
2018-01-14T05:13:13.573Z,14.83
2018-01-14T05:15:41.948Z,15.47
2018-01-14T05:18:10.314Z,15.43
2018-01-14T05:20:38.758Z,15.60
2018-01-14T05:23:07.144Z,16.27
2018-01-14T05:25:35.547Z,15.83
2018-01-14T05:28:03.980Z,15.10
2018-01-14T05:30:32.345Z,15.90
2018-01-14T05:33:00.728Z,16.97
2018-01-14T05:35:29.119Z,17.43
2018-01-14T05:37:57.595Z,17.73
2018-01-14T05:40:25.959Z,17.83
2018-01-14T05:42:54.345Z,15.00
2018-01-14T05:45:22.725Z,17.30
2018-01-14T05:47:51.164Z,17.17
2018-01-14T05:50:19.654Z,16.27
2018-01-14T05:52:48.097Z,17.40
2018-01-14T05:55:16.714Z,16.67
2018-01-14T05:57:45.847Z,17.27
2018-01-14T06:00:14.245Z,17.83
2018-01-14T06:02:42.627Z,17.67
2018-01-14T06:05:10.987Z,17.70
2018-01-14T06:07:39.397Z,17.60
2018-01-14T06:10:07.803Z,17.27
2018-01-14T06:12:36.936Z,17.93
2018-01-14T06:15:05.334Z,16.83
2018-01-14T06:17:33.704Z,18.13
2018-01-14T06:20:02.086Z,18.70
2018-01-14T06:22:30.460Z,17.97
2018-01-14T06:24:58.964Z,18.80
2018-01-14T06:27:27.348Z,18.23
2018-01-14T06:29:55.719Z,18.87
2018-01-14T06:32:24.205Z,19.27
2018-01-14T06:34:52.676Z,19.33
2018-01-14T06:37:21.047Z,19.87
2018-01-14T06:39:49.429Z,19.43
2018-01-14T06:42:17.913Z,18.60
2018-01-14T06:44:46.407Z,20.17
2018-01-14T06:47:14.778Z,19.77
2018-01-14T06:49:43.151Z,19.80
2018-01-14T06:52:11.544Z,20.00
2018-01-14T06:54:39.927Z,19.03
2018-01-14T06:57:08.299Z,18.93
2018-01-14T06:59:36.696Z,20.43
2018-01-14T07:02:05.164Z,22.70
2018-01-14T07:04:33.542Z,21.77
2018-01-14T07:07:02.030Z,19.87
2018-01-14T07:09:30.388Z,19.60
2018-01-14T07:11:58.761Z,20.37
2018-01-14T07:14:27.150Z,20.67
2018-01-14T07:16:55.640Z,20.67
2018-01-14T07:19:23.997Z,19.70
2018-01-14T07:21:52.374Z,20.70
2018-01-14T07:24:20.784Z,21.07
2018-01-14T07:26:49.153Z,20.30
2018-01-14T07:29:17.629Z,20.30
2018-01-14T07:31:45.995Z,21.17
2018-01-14T07:34:14.390Z,20.97
2018-01-14T07:36:42.753Z,21.17
2018-01-14T07:39:11.135Z,20.97
2018-01-14T07:41:39.515Z,21.07
2018-01-14T07:44:07.968Z,21.87
2018-01-14T07:46:37.095Z,19.63
2018-01-14T07:49:05.485Z,21.97
2018-01-14T07:51:33.873Z,21.37
2018-01-14T07:54:02.241Z,22.20
2018-01-14T07:56:30.596Z,23.07
2018-01-14T07:58:58.978Z,21.30
2018-01-14T08:01:27.487Z,22.27
2018-01-14T08:03:55.865Z,25.13
2018-01-14T08:06:24.231Z,23.33
2018-01-14T08:08:52.613Z,21.27
2018-01-14T08:11:21.009Z,21.60
2018-01-14T08:13:49.376Z,22.20
2018-01-14T08:16:17.808Z,22.10
2018-01-14T08:18:46.947Z,22.57
2018-01-14T08:21:15.330Z,23.37
2018-01-14T08:23:44.033Z,20.93
2018-01-14T08:26:12.409Z,23.87
2018-01-14T08:28:40.766Z,21.67
2018-01-14T08:31:09.157Z,23.03
2018-01-14T08:33:37.545Z,22.63
2018-01-14T08:36:05.990Z,21.40
2018-01-14T08:38:34.518Z,22.00
2018-01-14T08:41:02.880Z,22.50
2018-01-14T08:43:31.382Z,22.07
2018-01-14T08:45:59.757Z,20.97
2018-01-14T08:48:28.152Z,20.40
2018-01-14T08:50:56.532Z,22.17
2018-01-14T08:53:24.989Z,22.50
2018-01-14T08:55:53.368Z,22.43
2018-01-14T08:58:21.749Z,24.13
2018-01-14T09:00:50.168Z,23.57
2018-01-14T09:03:19.295Z,22.80
2018-01-14T09:05:47.669Z,22.47
2018-01-14T09:08:16.043Z,22.30
2018-01-14T09:10:44.414Z,22.40
2018-01-14T09:13:12.939Z,22.60
2018-01-14T09:15:41.297Z,25.33
2018-01-14T09:18:09.688Z,23.27
2018-01-14T09:20:38.077Z,23.60
2018-01-14T09:23:07.020Z,23.47
2018-01-14T09:25:36.160Z,22.77
2018-01-14T09:28:04.549Z,23.60
2018-01-14T09:30:44.908Z,22.20
2018-01-14T09:33:13.285Z,23.20
2018-01-14T09:35:41.668Z,22.50
2018-01-14T09:38:10.045Z,22.03
2018-01-14T09:40:38.453Z,23.90
2018-01-14T09:43:06.832Z,22.30
2018-01-14T09:45:35.183Z,24.23
2018-01-14T09:48:03.577Z,23.53
2018-01-14T09:50:31.953Z,24.30
2018-01-14T09:53:00.425Z,23.17
2018-01-14T09:55:28.800Z,24.03
2018-01-14T09:57:57.251Z,22.33
2018-01-14T10:00:25.626Z,24.90
2018-01-14T10:02:54.038Z,23.43
2018-01-14T10:05:22.437Z,22.97
2018-01-14T10:07:50.804Z,23.27
2018-01-14T10:10:19.285Z,21.73
2018-01-14T10:12:47.660Z,22.97
2018-01-14T10:15:16.080Z,23.70
2018-01-14T10:17:44.439Z,24.20
2018-01-14T10:20:12.958Z,21.73
2018-01-14T10:22:41.325Z,23.40
2018-01-14T10:25:09.773Z,24.60
2018-01-14T10:27:38.161Z,22.77
2018-01-14T10:30:06.529Z,22.93
2018-01-14T10:32:34.908Z,23.37
2018-01-14T10:35:03.299Z,23.50
2018-01-14T10:37:31.723Z,23.13
2018-01-14T10:40:00.896Z,23.40
2018-01-14T10:42:29.264Z,22.27
2018-01-14T10:44:57.730Z,22.20
2018-01-14T10:47:26.090Z,22.70
2018-01-14T10:49:54.474Z,23.23
2018-01-14T10:52:22.864Z,22.83
2018-01-14T10:54:51.231Z,21.60
2018-01-14T10:57:19.610Z,21.50
2018-01-14T10:59:47.984Z,23.30
2018-01-14T11:02:16.379Z,20.97
2018-01-14T11:04:44.744Z,22.73
2018-01-14T11:07:13.132Z,22.60
2018-01-14T11:09:41.510Z,21.67
2018-01-14T11:12:09.866Z,21.20
2018-01-14T11:14:38.239Z,21.93
2018-01-14T11:17:06.723Z,22.50
2018-01-14T11:19:35.123Z,21.27
2018-01-14T11:22:03.494Z,20.20
2018-01-14T11:24:31.903Z,23.10
2018-01-14T11:27:00.287Z,22.37
2018-01-14T11:32:33.458Z,33.10
2018-01-14T11:35:01.939Z,22.87
2018-01-14T11:37:30.337Z,21.13
2018-01-14T11:39:58.668Z,21.40
2018-01-14T11:42:27.033Z,20.07
2018-01-14T11:44:56.178Z,20.97
2018-01-14T11:47:24.548Z,21.10
2018-01-14T11:49:52.901Z,21.37
2018-01-14T11:52:22.016Z,20.93
2018-01-14T11:54:50.419Z,20.70
2018-01-14T11:57:18.790Z,21.00
2018-01-14T11:59:47.167Z,19.97
2018-01-14T12:02:15.545Z,20.67
2018-01-14T12:04:43.889Z,21.33
2018-01-14T12:07:13.014Z,22.50
2018-01-14T12:09:41.403Z,21.10
2018-01-14T12:12:09.768Z,20.13
2018-01-14T12:14:38.329Z,21.53
2018-01-14T12:17:07.468Z,20.40
2018-01-14T12:19:35.855Z,21.57
2018-01-14T12:22:04.218Z,20.33
2018-01-14T12:24:32.580Z,19.97
2018-01-14T12:27:00.941Z,19.83
2018-01-14T12:29:30.073Z,20.30
2018-01-14T12:31:58.509Z,20.27
2018-01-14T12:34:37.756Z,20.93
2018-01-14T12:37:06.095Z,21.37
2018-01-14T12:39:34.454Z,21.47
2018-01-14T12:42:02.857Z,20.17
2018-01-14T12:44:31.180Z,20.77
2018-01-14T12:47:00.408Z,21.30
2018-01-14T12:49:28.752Z,21.57
2018-01-14T12:51:58.494Z,20.53
2018-01-14T12:54:26.825Z,21.10
2018-01-14T12:56:55.257Z,20.30
2018-01-14T12:59:23.597Z,20.40
2018-01-14T13:01:52.723Z,20.07
2018-01-14T13:04:21.117Z,19.57
2018-01-14T13:06:49.439Z,25.43
2018-01-14T13:09:17.783Z,23.97
2018-01-14T13:11:46.149Z,21.53
2018-01-14T13:14:14.471Z,20.17
2018-01-14T13:16:43.004Z,20.47
2018-01-14T13:19:11.368Z,20.13
2018-01-14T13:21:39.716Z,19.80
2018-01-14T13:24:08.815Z,19.67
2018-01-14T13:26:37.935Z,19.67
2018-01-14T13:29:07.062Z,19.57
2018-01-14T13:31:35.403Z,21.67
2018-01-14T13:34:04.577Z,19.63
2018-01-14T13:36:32.944Z,20.47
2018-01-14T13:39:01.289Z,21.37
2018-01-14T13:41:29.718Z,21.57
2018-01-14T13:43:58.029Z,20.90
2018-01-14T13:46:26.381Z,19.83
2018-01-14T13:48:55.501Z,20.07
2018-01-14T13:51:23.875Z,19.97
2018-01-14T13:53:52.225Z,19.93
2018-01-14T13:56:20.665Z,20.73
2018-01-14T13:58:49.009Z,20.67
2018-01-14T14:01:18.231Z,21.10
2018-01-14T14:03:46.586Z,21.30
2018-01-14T14:06:15.065Z,21.17
2018-01-14T14:08:44.178Z,20.83
2018-01-14T14:11:12.626Z,20.53
2018-01-14T14:13:40.963Z,20.73
2018-01-14T14:16:09.381Z,21.33
2018-01-14T14:18:37.716Z,20.80
2018-01-14T14:21:06.094Z,19.37
2018-01-14T14:23:34.452Z,21.37
2018-01-14T14:26:02.846Z,21.43
2018-01-14T14:28:31.176Z,20.67
2018-01-14T14:30:59.527Z,20.10
2018-01-14T14:33:27.890Z,20.50
2018-01-14T14:35:56.247Z,21.10
2018-01-14T14:38:24.627Z,19.63
2018-01-14T14:40:52.973Z,21.43
2018-01-14T14:43:21.342Z,20.87
2018-01-14T14:45:49.775Z,20.07
2018-01-14T14:48:18.154Z,20.77
2018-01-14T14:50:46.495Z,21.33
2018-01-14T14:53:15.642Z,21.63
2018-01-14T14:55:44.013Z,22.77
2018-01-14T14:58:12.431Z,22.97
2018-01-14T15:00:40.783Z,23.43
2018-01-14T15:03:09.138Z,21.87
2018-01-14T15:05:37.523Z,21.33
2018-01-14T15:08:05.849Z,21.87
2018-01-14T15:10:34.199Z,21.00
2018-01-14T15:13:02.551Z,22.63
2018-01-14T15:15:30.949Z,19.97
2018-01-14T15:17:59.304Z,22.00
2018-01-14T15:20:27.680Z,22.27
2018-01-14T15:22:56.092Z,22.10
2018-01-14T15:25:24.448Z,22.07
2018-01-14T15:27:52.796Z,20.97
2018-01-14T15:30:21.908Z,23.23
2018-01-14T15:32:50.262Z,20.63
2018-01-14T15:35:18.700Z,22.67
2018-01-14T15:37:47.112Z,23.30
2018-01-14T15:40:15.511Z,22.43
2018-01-14T15:42:43.859Z,23.03
2018-01-14T15:45:12.222Z,23.27
2018-01-14T15:47:40.640Z,24.17
2018-01-14T15:50:09.004Z,23.60
2018-01-14T15:52:37.361Z,24.33
2018-01-14T15:55:05.824Z,24.53
2018-01-14T15:57:34.321Z,23.03
2018-01-14T16:00:02.642Z,23.60
2018-01-14T16:02:31.085Z,23.00
2018-01-14T16:04:59.452Z,23.80
2018-01-14T16:07:27.802Z,23.03
2018-01-14T16:09:57.036Z,24.47
2018-01-14T16:12:25.397Z,22.83
2018-01-14T16:14:53.765Z,23.73
2018-01-14T16:17:22.377Z,24.90
2018-01-14T16:19:50.739Z,23.77
2018-01-14T16:22:19.139Z,26.33
2018-01-14T16:24:47.580Z,24.23
2018-01-14T16:27:16.710Z,25.03
2018-01-14T16:29:45.091Z,24.03
2018-01-14T16:32:13.523Z,24.60
2018-01-14T16:34:41.862Z,27.83
2018-01-14T16:37:10.220Z,26.53
2018-01-14T16:39:38.594Z,24.50
2018-01-14T16:42:06.941Z,23.97
2018-01-14T16:44:35.419Z,23.77
2018-01-14T16:47:04.544Z,26.23
2018-01-14T16:49:33.002Z,23.50
2018-01-14T16:52:02.107Z,24.67
2018-01-14T16:54:31.190Z,23.27
2018-01-14T16:57:00.314Z,24.10
2018-01-14T16:59:28.679Z,23.97
2018-01-14T17:01:57.985Z,24.17
2018-01-14T17:04:27.116Z,23.87
2018-01-14T17:06:55.596Z,24.40
2018-01-14T17:09:23.980Z,24.43
2018-01-14T17:11:52.358Z,23.00
2018-01-14T17:14:20.814Z,25.23
2018-01-14T17:16:49.201Z,24.87
2018-01-14T17:19:17.596Z,23.57
2018-01-14T17:21:45.964Z,23.20
2018-01-14T17:24:14.347Z,26.50
2018-01-14T17:26:42.686Z,25.57
2018-01-14T17:29:11.786Z,25.43
2018-01-14T17:31:41.012Z,24.07
2018-01-14T17:34:09.397Z,25.77
2018-01-14T17:36:37.812Z,24.97
2018-01-14T17:39:06.149Z,25.37
2018-01-14T17:41:34.585Z,26.80
2018-01-14T17:44:02.927Z,24.47
2018-01-14T17:46:31.282Z,25.67
2018-01-14T17:49:00.263Z,25.70
2018-01-14T17:51:28.675Z,23.40
2018-01-14T17:53:57.046Z,24.63
2018-01-14T17:56:25.573Z,23.97
2018-01-14T17:58:54.116Z,24.07
2018-01-14T18:01:22.463Z,36.40
2018-01-14T18:03:50.822Z,27.83
2018-01-14T18:06:19.186Z,24.17
2018-01-14T18:08:47.565Z,23.83
2018-01-14T18:11:15.919Z,23.87
2018-01-14T18:13:44.272Z,21.87
2018-01-14T18:16:12.679Z,23.27
2018-01-14T18:18:41.114Z,23.10
2018-01-14T18:21:10.214Z,23.93
2018-01-14T18:23:38.575Z,23.17
2018-01-14T18:26:07.711Z,22.63
2018-01-14T18:28:36.144Z,23.30
2018-01-14T18:31:04.546Z,21.77
2018-01-14T18:33:32.909Z,22.73
2018-01-14T18:36:01.842Z,23.67
2018-01-14T18:38:30.196Z,23.80
2018-01-14T18:40:59.334Z,22.40
2018-01-14T18:43:27.680Z,23.13
2018-01-14T18:46:07.817Z,22.77
2018-01-14T18:48:36.928Z,22.93
2018-01-14T18:51:05.317Z,25.97
2018-01-14T18:53:33.691Z,24.73
2018-01-14T18:56:02.264Z,22.30
2018-01-14T18:58:31.380Z,23.47
2018-01-14T19:00:59.753Z,24.27
2018-01-14T19:03:28.116Z,23.70
2018-01-14T19:05:57.263Z,23.13
2018-01-14T19:08:25.749Z,23.23
2018-01-14T19:10:54.097Z,22.37
2018-01-14T19:13:22.500Z,25.40
2018-01-14T19:15:50.858Z,27.77
2018-01-14T19:18:19.203Z,22.87
2018-01-14T19:20:48.351Z,21.37
2018-01-14T19:23:16.737Z,21.90
2018-01-14T19:25:45.144Z,23.40
2018-01-14T19:28:13.513Z,22.97
2018-01-14T19:30:41.910Z,23.23
2018-01-14T19:33:10.368Z,24.00
2018-01-14T19:35:38.750Z,22.20
2018-01-14T19:38:07.123Z,23.20
2018-01-14T19:40:35.663Z,22.80
2018-01-14T19:43:04.773Z,24.20
2018-01-14T19:45:33.135Z,23.17
2018-01-14T19:48:01.493Z,23.83
2018-01-14T19:50:30.650Z,23.47
2018-01-14T19:52:59.019Z,24.43
2018-01-14T19:55:27.462Z,23.47
2018-01-14T19:57:56.599Z,23.43
2018-01-14T20:00:24.962Z,22.90
2018-01-14T20:02:53.347Z,23.47
2018-01-14T20:05:22.293Z,23.07
2018-01-14T20:07:50.702Z,23.23
2018-01-14T20:10:19.147Z,23.43
2018-01-14T20:12:47.517Z,24.13
2018-01-14T20:15:15.964Z,23.23
2018-01-14T20:17:44.333Z,24.20
2018-01-14T20:20:12.754Z,24.17
2018-01-14T20:22:41.210Z,24.13
2018-01-14T20:25:09.613Z,24.10
2018-01-14T20:27:38.995Z,23.27
2018-01-14T20:30:07.468Z,23.70
2018-01-14T20:32:35.819Z,23.90
2018-01-14T20:35:04.197Z,22.73
2018-01-14T20:37:32.586Z,22.43
2018-01-14T20:40:01.596Z,22.80
2018-01-14T20:42:29.945Z,23.03
2018-01-14T20:44:59.087Z,23.73
2018-01-14T20:47:27.451Z,23.97
2018-01-14T20:49:55.876Z,23.47
2018-01-14T20:52:24.251Z,23.67
2018-01-14T20:54:52.718Z,22.93
2018-01-14T20:57:21.055Z,23.23
2018-01-14T20:59:49.463Z,22.23
2018-01-14T21:02:17.834Z,24.93
2018-01-14T21:04:46.224Z,22.77
2018-01-14T21:07:14.587Z,23.43
2018-01-14T21:09:42.949Z,21.97
2018-01-14T21:12:11.359Z,22.50
2018-01-14T21:14:39.711Z,23.53
2018-01-14T21:17:08.089Z,23.77
2018-01-14T21:19:36.443Z,25.63
2018-01-14T21:22:05.588Z,23.73
2018-01-14T21:24:33.943Z,24.63
2018-01-14T21:27:02.346Z,24.47
2018-01-14T21:29:30.858Z,24.70
2018-01-14T21:31:59.230Z,23.03
2018-01-14T21:34:27.743Z,23.97
2018-01-14T21:36:56.268Z,24.57
2018-01-14T21:39:25.238Z,22.80
2018-01-14T21:41:53.591Z,25.10
2018-01-14T21:44:22.725Z,23.20
2018-01-14T21:46:51.091Z,23.63
2018-01-14T21:49:19.436Z,23.40
2018-01-14T21:51:48.210Z,23.43
2018-01-14T21:54:16.549Z,22.27
2018-01-14T21:56:45.259Z,22.27
2018-01-14T21:59:13.601Z,24.27
2018-01-14T22:01:42.040Z,22.20
2018-01-14T22:04:10.383Z,24.33
2018-01-14T22:06:38.736Z,22.70
2018-01-14T22:09:07.091Z,24.10
2018-01-14T22:11:35.440Z,23.17
2018-01-14T22:14:03.850Z,24.20
2018-01-14T22:16:32.205Z,22.37
2018-01-14T22:19:00.553Z,24.17
2018-01-14T22:21:28.904Z,21.73
2018-01-14T22:24:00.560Z,23.67
2018-01-14T22:26:29.386Z,22.20
2018-01-14T22:28:58.158Z,22.07
2018-01-14T22:31:27.072Z,21.67
2018-01-14T22:33:55.567Z,21.17
2018-01-14T22:36:23.955Z,21.03
2018-01-14T22:38:52.468Z,20.90
2018-01-14T22:41:20.842Z,21.73
2018-01-14T22:43:49.968Z,20.43
2018-01-14T22:46:18.308Z,21.23
2018-01-14T22:48:46.923Z,19.43
2018-01-14T22:51:16.026Z,20.30
2018-01-14T22:53:44.408Z,18.60
2018-01-14T22:56:12.766Z,20.37
2018-01-14T22:58:41.885Z,19.77
2018-01-14T23:01:10.340Z,18.10
2018-01-14T23:03:38.759Z,18.27
2018-01-14T23:06:07.133Z,17.87
2018-01-14T23:08:35.514Z,16.37
2018-01-14T23:11:03.892Z,17.60
2018-01-14T23:13:32.232Z,17.50
2018-01-14T23:16:01.825Z,17.07
2018-01-14T23:18:30.164Z,16.43
2018-01-14T23:20:58.616Z,18.33
2018-01-14T23:23:27.002Z,16.83
2018-01-14T23:25:55.369Z,15.23
2018-01-14T23:28:23.737Z,15.80
2018-01-14T23:30:52.861Z,16.43
2018-01-14T23:33:21.201Z,15.73
2018-01-14T23:35:49.550Z,17.53
2018-01-14T23:38:17.914Z,18.80
2018-01-14T23:40:46.291Z,15.40
2018-01-14T23:43:14.651Z,16.27
2018-01-14T23:45:43.063Z,16.43
2018-01-14T23:48:11.437Z,16.33
2018-01-14T23:50:39.777Z,15.80
2018-01-14T23:53:09.008Z,16.20
2018-01-14T23:55:37.356Z,15.23
2018-01-14T23:58:05.716Z,15.87
